createdAt,value
2023-04-04T00:00:34.603Z,1.27
2023-04-04T00:03:01.200Z,1.17
2023-04-04T00:05:28.534Z,1.45
2023-04-04T00:07:55.016Z,1.63
2023-04-04T00:10:21.513Z,1.42
2023-04-04T00:12:48.026Z,1.30
2023-04-04T00:15:14.533Z,1.80
2023-04-04T00:17:41.174Z,1.75
2023-04-04T00:20:08.020Z,1.60
2023-04-04T00:22:34.575Z,1.10
2023-04-04T00:25:01.604Z,1.47
2023-04-04T00:27:28.121Z,1.27
2023-04-04T00:29:54.739Z,1.27
2023-04-04T00:32:21.379Z,1.63
2023-04-04T00:34:53.495Z,1.52
2023-04-04T00:37:20.275Z,1.13
2023-04-04T00:39:47.755Z,0.90
2023-04-04T00:42:14.533Z,1.40
2023-04-04T00:44:41.019Z,1.30
2023-04-04T00:47:07.672Z,1.27
2023-04-04T00:49:34.643Z,1.97
2023-04-04T00:52:01.159Z,1.50
2023-04-04T00:54:27.664Z,1.33
2023-04-04T00:56:55.544Z,1.42
2023-04-04T00:59:23.794Z,1.70
2023-04-04T01:01:53.109Z,1.43
2023-04-04T01:04:19.704Z,1.08
2023-04-04T01:06:46.394Z,1.42
2023-04-04T01:09:13.164Z,1.45
2023-04-04T01:11:39.936Z,1.23
2023-04-04T01:14:06.749Z,1.33
2023-04-04T01:16:33.342Z,1.73
2023-04-04T01:19:00.114Z,1.48
2023-04-04T01:21:28.098Z,1.38
2023-04-04T01:24:04.561Z,1.35
2023-04-04T01:26:31.754Z,1.50
2023-04-04T01:28:58.989Z,1.13
2023-04-04T01:31:39.482Z,1.48
2023-04-04T01:34:49.646Z,1.42
2023-04-04T01:37:36.083Z,1.92
2023-04-04T01:40:17.218Z,1.47
2023-04-04T01:42:45.321Z,1.48
2023-04-04T01:45:12.591Z,1.27
2023-04-04T01:47:50.126Z,1.63
2023-04-04T01:50:16.682Z,1.27
2023-04-04T01:52:43.194Z,1.37
2023-04-04T01:55:09.953Z,1.58
2023-04-04T01:57:37.228Z,0.98
2023-04-04T02:00:05.870Z,1.92
2023-04-04T02:02:32.483Z,1.42
2023-04-04T02:04:59.333Z,1.33
2023-04-04T02:07:25.883Z,1.40
2023-04-04T02:09:53.398Z,1.85
2023-04-04T02:12:19.840Z,1.35
2023-04-04T02:14:46.274Z,1.73
2023-04-04T02:17:12.737Z,1.30
2023-04-04T02:19:40.261Z,1.35
2023-04-04T02:22:07.029Z,1.58
2023-04-04T02:24:33.458Z,1.90
2023-04-04T02:26:59.990Z,1.38
2023-04-04T02:29:26.629Z,1.67
2023-04-04T02:31:53.365Z,1.75
2023-04-04T02:34:19.871Z,1.45
2023-04-04T02:36:47.238Z,1.50
2023-04-04T02:39:13.860Z,1.58
2023-04-04T02:41:41.885Z,1.30
2023-04-04T02:44:09.847Z,1.42
2023-04-04T02:46:36.403Z,1.67
2023-04-04T02:49:03.748Z,1.48
2023-04-04T02:51:30.261Z,2.15
2023-04-04T02:53:57.289Z,1.27
2023-04-04T02:56:23.751Z,1.90
2023-04-04T02:58:52.417Z,1.90
2023-04-04T03:01:20.072Z,1.95
2023-04-04T03:03:46.737Z,1.60
2023-04-04T03:06:14.990Z,1.80
2023-04-04T03:08:41.511Z,1.90
2023-04-04T03:11:19.081Z,1.73
2023-04-04T03:13:45.562Z,1.63
2023-04-04T03:16:13.223Z,1.67
2023-04-04T03:18:39.738Z,1.60
2023-04-04T03:21:07.101Z,2.00
2023-04-04T03:23:33.652Z,1.77
2023-04-04T03:26:00.057Z,2.30
2023-04-04T03:28:26.544Z,1.67
2023-04-04T03:30:53.068Z,1.63
2023-04-04T03:33:19.627Z,1.85
2023-04-04T03:35:46.115Z,2.08
2023-04-04T03:38:35.407Z,1.85
2023-04-04T03:41:22.362Z,2.20
2023-04-04T03:43:49.191Z,1.70
2023-04-04T03:46:15.962Z,2.03
2023-04-04T03:48:42.487Z,1.55
2023-04-04T03:51:13.184Z,2.20
2023-04-04T03:53:39.623Z,1.95
2023-04-04T03:56:26.118Z,2.03
2023-04-04T03:59:07.562Z,1.85
2023-04-04T04:01:34.281Z,1.95
2023-04-04T04:04:26.017Z,1.73
2023-04-04T04:06:53.006Z,1.70
2023-04-04T04:09:22.968Z,1.87
2023-04-04T04:11:58.072Z,2.03
2023-04-04T04:15:08.322Z,1.80
2023-04-04T04:17:34.803Z,1.83
2023-04-04T04:22:47.902Z,2.00
2023-04-04T04:25:17.983Z,1.88
2023-04-04T04:27:49.219Z,1.75
2023-04-04T04:30:18.347Z,1.30
2023-04-04T04:32:53.551Z,1.98
2023-04-04T04:36:01.645Z,2.17
2023-04-04T04:38:41.044Z,2.20
2023-04-04T04:44:30.752Z,1.20
2023-04-04T04:47:07.140Z,2.17
2023-04-04T04:55:14.583Z,2.33
2023-04-04T04:57:41.126Z,2.00
2023-04-04T05:00:28.448Z,2.03
2023-04-04T05:02:56.902Z,1.37
2023-04-04T05:05:23.733Z,1.70
2023-04-04T05:07:50.334Z,1.77
2023-04-04T05:10:16.856Z,2.40
2023-04-04T05:12:48.147Z,2.25
2023-04-04T05:15:43.011Z,1.80
2023-04-04T05:18:09.485Z,2.00
2023-04-04T05:20:36.101Z,2.28
2023-04-04T05:23:02.631Z,1.80
2023-04-04T05:25:29.148Z,1.83
2023-04-04T05:27:57.566Z,2.10
2023-04-04T05:30:46.898Z,2.30
2023-04-04T05:33:13.592Z,1.98
2023-04-04T05:38:44.047Z,2.17
2023-04-04T05:41:11.062Z,2.00
2023-04-04T05:43:38.123Z,2.13
2023-04-04T05:46:04.748Z,2.58
2023-04-04T05:48:31.440Z,1.95
2023-04-04T05:50:57.902Z,1.95
2023-04-04T05:53:25.539Z,2.37
2023-04-04T05:55:55.036Z,1.75
2023-04-04T05:58:24.620Z,2.40
2023-04-04T06:01:11.816Z,2.47
2023-04-04T06:03:38.486Z,2.22
2023-04-04T06:06:05.702Z,2.37
2023-04-04T06:08:40.076Z,2.25
2023-04-04T06:11:09.951Z,2.08
2023-04-04T06:13:41.731Z,2.40
2023-04-04T06:16:08.304Z,2.45
2023-04-04T06:18:41.914Z,2.33
2023-04-04T06:21:08.330Z,2.65
2023-04-04T06:23:37.472Z,2.53
2023-04-04T06:26:04.185Z,2.67
2023-04-04T06:28:30.728Z,2.60
2023-04-04T06:30:57.500Z,2.30
2023-04-04T06:33:24.066Z,2.78
2023-04-04T06:35:50.640Z,2.58
2023-04-04T06:38:17.253Z,2.85
2023-04-04T06:40:44.706Z,2.88
2023-04-04T06:43:11.373Z,3.23
2023-04-04T06:45:37.934Z,3.92
2023-04-04T06:48:04.511Z,3.80
2023-04-04T06:50:34.317Z,3.13
2023-04-04T06:53:01.918Z,3.40
2023-04-04T06:55:29.128Z,3.30
2023-04-04T06:57:55.625Z,2.92
2023-04-04T07:00:22.192Z,2.58
2023-04-04T07:02:48.869Z,3.22
2023-04-04T07:05:17.908Z,2.88
2023-04-04T07:07:46.497Z,2.63
2023-04-04T07:10:12.952Z,3.30
2023-04-04T07:12:39.722Z,2.80
2023-04-04T07:15:06.861Z,3.33
2023-04-04T07:17:36.825Z,3.47
2023-04-04T07:20:04.857Z,3.57
2023-04-04T07:22:32.780Z,3.13
2023-04-04T07:24:59.291Z,2.83
2023-04-04T07:27:25.942Z,2.95
2023-04-04T07:29:52.496Z,3.03
2023-04-04T07:32:18.961Z,2.70
2023-04-04T07:34:47.158Z,2.67
2023-04-04T07:37:13.700Z,2.60
2023-04-04T07:39:40.290Z,2.70
2023-04-04T07:42:06.814Z,2.80
2023-04-04T07:44:33.414Z,2.50
2023-04-04T07:47:09.395Z,2.50
2023-04-04T07:49:36.954Z,2.72
2023-04-04T07:52:04.540Z,2.60
2023-04-04T07:54:31.375Z,2.72
2023-04-04T07:56:57.877Z,3.00
2023-04-04T07:59:26.355Z,2.97
2023-04-04T08:01:52.984Z,2.58
2023-04-04T08:04:20.751Z,2.58
2023-04-04T08:06:47.697Z,2.40
2023-04-04T08:09:14.194Z,2.37
2023-04-04T08:11:41.251Z,2.55
2023-04-04T08:14:11.851Z,2.72
2023-04-04T08:16:39.245Z,2.05
2023-04-04T08:19:07.340Z,2.00
2023-04-04T08:21:33.936Z,1.70
2023-04-04T08:24:00.353Z,2.25
2023-04-04T08:26:26.835Z,1.67
2023-04-04T08:28:56.019Z,1.90
2023-04-04T08:31:24.576Z,2.40
2023-04-04T08:33:52.405Z,2.20
2023-04-04T08:36:19.666Z,1.42
2023-04-04T08:38:46.134Z,1.50
2023-04-04T08:41:13.338Z,1.80
2023-04-04T08:43:43.726Z,1.88
2023-04-04T08:46:12.772Z,2.00
2023-04-04T08:48:42.073Z,2.03
2023-04-04T08:51:11.289Z,1.98
2023-04-04T08:53:39.373Z,1.25
2023-04-04T08:56:06.339Z,0.90
2023-04-04T08:58:33.159Z,0.83
2023-04-04T09:01:00.197Z,0.70
2023-04-04T09:03:32.064Z,0.70
2023-04-04T09:05:59.685Z,0.85
2023-04-04T09:08:26.474Z,1.17
2023-04-04T09:10:53.211Z,1.10
2023-04-04T09:13:20.822Z,1.00
2023-04-04T09:15:50.903Z,1.00
2023-04-04T09:18:18.156Z,0.80
2023-04-04T09:20:46.755Z,2.30
2023-04-04T09:23:21.154Z,1.20
2023-04-04T09:26:03.211Z,1.08
2023-04-04T09:28:34.398Z,1.23
2023-04-04T09:31:05.597Z,1.30
2023-04-04T09:33:33.586Z,1.00
2023-04-04T09:36:07.897Z,1.20
2023-04-04T09:38:38.418Z,1.30
2023-04-04T09:41:11.744Z,1.08
2023-04-04T09:43:39.754Z,1.25
2023-04-04T09:46:07.773Z,1.63
2023-04-04T09:48:36.975Z,1.27
2023-04-04T09:51:12.000Z,1.17
2023-04-04T09:53:41.616Z,1.00
2023-04-04T09:56:08.901Z,1.30
2023-04-04T09:58:36.661Z,1.13
2023-04-04T10:01:08.523Z,1.30
2023-04-04T10:03:37.018Z,1.35
2023-04-04T10:06:07.172Z,1.20
2023-04-04T10:08:34.614Z,1.10
2023-04-04T10:11:11.265Z,1.10
2023-04-04T10:13:46.596Z,1.57
2023-04-04T10:16:13.409Z,1.00
2023-04-04T10:18:40.489Z,1.27
2023-04-04T10:21:15.604Z,1.05
2023-04-04T10:23:45.368Z,1.10
2023-04-04T10:26:12.769Z,1.20
2023-04-04T10:28:39.923Z,1.00
2023-04-04T10:31:15.761Z,1.30
2023-04-04T10:33:55.308Z,1.17
2023-04-04T10:36:24.594Z,0.80
2023-04-04T10:39:21.571Z,1.07
2023-04-04T10:41:52.122Z,1.23
2023-04-04T10:44:21.611Z,1.00
2023-04-04T10:46:53.618Z,1.08
2023-04-04T10:49:21.747Z,1.30
2023-04-04T10:51:56.597Z,1.23
2023-04-04T10:54:25.457Z,1.30
2023-04-04T10:56:52.469Z,1.38
2023-04-04T10:59:19.000Z,1.00
2023-04-04T11:02:00.127Z,1.30
2023-04-04T11:04:35.584Z,1.20
2023-04-04T11:07:10.714Z,1.20
2023-04-04T11:09:51.867Z,1.30
2023-04-04T11:12:27.013Z,1.20
2023-04-04T11:14:58.121Z,1.20
2023-04-04T11:17:49.489Z,1.00
2023-04-04T11:20:22.139Z,1.23
2023-04-04T11:23:03.853Z,1.17
2023-04-04T11:25:36.077Z,1.20
2023-04-04T11:28:25.212Z,1.10
2023-04-04T11:31:26.534Z,1.57
2023-04-04T11:34:16.270Z,1.15
2023-04-04T11:37:02.944Z,0.80
2023-04-04T11:39:33.630Z,1.38
2023-04-04T11:42:13.740Z,1.17
2023-04-04T11:44:43.137Z,1.07
2023-04-04T11:47:11.628Z,1.48
2023-04-04T11:49:43.004Z,1.25
2023-04-04T11:52:14.407Z,1.27
2023-04-04T11:54:42.742Z,1.20
2023-04-04T11:57:13.925Z,1.27
2023-04-04T11:59:45.346Z,1.15
2023-04-04T12:02:13.440Z,1.33
2023-04-04T12:04:43.692Z,1.40
2023-04-04T12:07:10.663Z,1.13
2023-04-04T12:09:38.582Z,1.50
2023-04-04T12:12:07.560Z,1.08
2023-04-04T12:14:34.542Z,1.30
2023-04-04T12:17:03.080Z,1.30
2023-04-04T12:19:29.836Z,1.27
2023-04-04T12:21:58.092Z,1.27
2023-04-04T12:24:24.785Z,1.08
2023-04-04T12:26:53.260Z,1.00
2023-04-04T12:29:22.589Z,1.42
2023-04-04T12:31:51.010Z,2.03
2023-04-04T12:36:57.109Z,1.30
2023-04-04T12:39:26.872Z,1.30
2023-04-04T12:42:03.548Z,1.30
2023-04-04T12:44:36.365Z,1.48
2023-04-04T12:47:06.442Z,1.50
2023-04-04T12:49:39.423Z,1.50
2023-04-04T12:52:07.711Z,1.90
2023-04-04T12:54:38.774Z,1.55
2023-04-04T12:57:07.508Z,1.85
2023-04-04T12:59:37.622Z,1.73
2023-04-04T13:02:09.003Z,1.42
2023-04-04T13:04:35.796Z,1.20
2023-04-04T13:07:03.143Z,1.30
2023-04-04T13:09:30.100Z,1.40
2023-04-04T13:12:08.666Z,1.60
2023-04-04T13:14:58.114Z,1.40
2023-04-04T13:17:25.065Z,1.98
2023-04-04T13:19:52.400Z,1.73
2023-04-04T13:22:19.001Z,1.45
2023-04-04T13:24:45.518Z,1.53
2023-04-04T13:27:11.937Z,1.95
2023-04-04T13:29:38.423Z,1.80
2023-04-04T13:32:05.494Z,1.38
2023-04-04T13:34:32.799Z,1.30
2023-04-04T13:36:59.351Z,1.70
2023-04-04T13:39:25.897Z,1.85
2023-04-04T13:41:52.636Z,1.60
2023-04-04T13:44:19.171Z,1.98
2023-04-04T13:46:45.814Z,1.85
2023-04-04T13:49:12.657Z,1.83
2023-04-04T13:51:39.158Z,2.05
2023-04-04T13:54:05.841Z,1.90
2023-04-04T13:56:32.353Z,1.85
2023-04-04T13:58:58.869Z,2.00
2023-04-04T14:01:25.605Z,2.20
2023-04-04T14:03:52.394Z,2.00
2023-04-04T14:06:19.034Z,2.33
2023-04-04T14:08:47.087Z,1.90
2023-04-04T14:11:14.952Z,1.92
2023-04-04T14:13:41.906Z,1.80
2023-04-04T14:16:09.029Z,1.88
2023-04-04T14:18:35.858Z,1.88
2023-04-04T14:21:03.231Z,1.90
2023-04-04T14:23:33.018Z,2.00
2023-04-04T14:25:59.677Z,1.63
2023-04-04T14:28:26.274Z,2.05
2023-04-04T14:30:52.750Z,2.17
2023-04-04T14:33:19.182Z,1.75
2023-04-04T14:35:45.688Z,1.80
2023-04-04T14:38:12.087Z,1.80
2023-04-04T14:40:38.546Z,1.70
2023-04-04T14:43:05.633Z,1.88
2023-04-04T14:45:33.399Z,1.73
2023-04-04T14:48:00.087Z,1.60
2023-04-04T14:50:26.704Z,1.37
2023-04-04T14:52:53.352Z,1.52
2023-04-04T14:55:20.624Z,1.60
2023-04-04T14:58:01.194Z,2.50
2023-04-04T15:00:29.352Z,1.63
2023-04-04T15:02:56.169Z,1.73
2023-04-04T15:05:22.979Z,1.77
2023-04-04T15:07:49.708Z,2.05
2023-04-04T15:10:16.533Z,1.50
2023-04-04T15:12:43.090Z,1.85
2023-04-04T15:15:10.011Z,1.40
2023-04-04T15:17:37.786Z,1.63
2023-04-04T15:20:04.829Z,1.83
2023-04-04T15:22:31.545Z,1.60
2023-04-04T15:24:58.332Z,1.48
2023-04-04T15:27:24.912Z,1.70
2023-04-04T15:29:52.782Z,2.17
2023-04-04T15:32:21.586Z,1.70
2023-04-04T15:34:50.966Z,1.77
2023-04-04T15:37:17.847Z,1.77
2023-04-04T15:39:52.279Z,1.80
2023-04-04T15:42:19.790Z,1.65
2023-04-04T15:44:46.641Z,2.22
2023-04-04T15:47:13.267Z,1.55
2023-04-04T15:49:39.765Z,2.00
2023-04-04T15:52:06.761Z,1.60
2023-04-04T15:54:33.329Z,1.70
2023-04-04T15:57:00.386Z,1.85
2023-04-04T15:59:27.283Z,1.67
2023-04-04T16:01:54.372Z,2.03
2023-04-04T16:04:20.860Z,1.53
2023-04-04T16:06:47.365Z,1.83
2023-04-04T16:09:16.141Z,1.75
2023-04-04T16:11:42.711Z,1.73
2023-04-04T16:14:12.194Z,1.70
2023-04-04T16:16:40.554Z,1.63
2023-04-04T16:19:07.267Z,2.28
2023-04-04T16:21:33.878Z,1.85
2023-04-04T16:24:00.486Z,1.75
2023-04-04T16:26:27.065Z,1.58
2023-04-04T16:28:53.910Z,1.90
2023-04-04T16:31:20.719Z,1.90
2023-04-04T16:33:47.726Z,2.00
2023-04-04T16:36:14.337Z,1.60
2023-04-04T16:38:40.862Z,1.52
2023-04-04T16:41:07.456Z,2.13
2023-04-04T16:43:34.251Z,2.30
2023-04-04T16:46:00.818Z,2.60
2023-04-04T16:48:27.412Z,2.58
2023-04-04T16:50:54.957Z,2.00
2023-04-04T16:53:21.510Z,1.87
2023-04-04T16:55:48.103Z,1.92
2023-04-04T16:58:14.871Z,1.80
2023-04-04T17:00:42.076Z,1.85
2023-04-04T17:03:08.994Z,2.03
2023-04-04T17:05:35.681Z,2.03
2023-04-04T17:08:02.337Z,2.03
2023-04-04T17:10:28.861Z,1.55
2023-04-04T17:12:55.368Z,1.88
2023-04-04T17:15:24.475Z,1.83
2023-04-04T17:17:55.010Z,2.10
2023-04-04T17:20:31.005Z,1.48
2023-04-04T17:22:59.024Z,2.05
2023-04-04T17:25:29.401Z,2.15
2023-04-04T17:27:56.043Z,2.22
2023-04-04T17:30:22.587Z,2.53
2023-04-04T17:32:49.464Z,2.60
2023-04-04T17:35:16.492Z,2.80
2023-04-04T17:37:42.955Z,2.72
2023-04-04T17:40:09.967Z,2.70
2023-04-04T17:42:37.601Z,2.50
2023-04-04T17:45:04.868Z,2.85
2023-04-04T17:47:31.599Z,2.83
2023-04-04T17:49:58.148Z,3.17
2023-04-04T17:52:24.607Z,2.55
2023-04-04T17:55:40.286Z,2.40
2023-04-04T17:58:11.607Z,2.53
2023-04-04T18:00:41.445Z,3.00
2023-04-04T18:03:08.579Z,2.70
2023-04-04T18:05:38.138Z,2.85
2023-04-04T18:08:07.028Z,3.00
2023-04-04T18:10:38.574Z,3.30
2023-04-04T18:13:05.883Z,2.78
2023-04-04T18:15:33.817Z,3.10
2023-04-04T18:18:22.888Z,3.20
2023-04-04T18:21:14.158Z,2.90
2023-04-04T18:23:55.940Z,3.17
2023-04-04T18:26:36.850Z,3.42
2023-04-04T18:32:35.128Z,4.20
2023-04-04T18:35:02.045Z,3.67
2023-04-04T18:37:28.851Z,3.90
2023-04-04T18:39:55.650Z,3.28
2023-04-04T18:42:22.797Z,3.20
2023-04-04T18:44:49.473Z,3.67
2023-04-04T18:47:16.075Z,3.87
2023-04-04T18:49:42.909Z,3.20
2023-04-04T18:52:09.677Z,3.30
2023-04-04T18:54:36.690Z,3.20
2023-04-04T18:57:03.345Z,3.20
2023-04-04T18:59:43.393Z,3.30
2023-04-04T19:02:09.910Z,3.33
2023-04-04T19:04:39.194Z,3.50
2023-04-04T19:07:06.978Z,3.20
2023-04-04T19:09:35.046Z,3.10
2023-04-04T19:12:02.772Z,3.10
2023-04-04T19:14:30.345Z,3.47
2023-04-04T19:16:56.923Z,2.83
2023-04-04T19:19:23.586Z,3.25
2023-04-04T19:21:52.205Z,3.38
2023-04-04T19:24:18.842Z,3.07
2023-04-04T19:26:46.167Z,3.35
2023-04-04T19:29:20.348Z,3.42
2023-04-04T19:31:47.535Z,3.17
2023-04-04T19:34:20.172Z,3.78
2023-04-04T19:36:47.393Z,3.00
2023-04-04T19:39:19.353Z,3.20
2023-04-04T19:41:46.006Z,3.08
2023-04-04T19:44:20.045Z,3.53
2023-04-04T19:46:47.814Z,3.85
2023-04-04T19:49:16.543Z,3.97
2023-04-04T19:51:50.934Z,3.35
2023-04-04T19:54:26.403Z,3.63
2023-04-04T19:57:03.759Z,3.80
2023-04-04T19:59:44.382Z,4.53
2023-04-04T20:02:45.998Z,4.47
2023-04-04T20:05:47.390Z,3.90
2023-04-04T20:08:14.567Z,3.92
2023-04-04T20:10:42.255Z,3.65
2023-04-04T20:13:09.868Z,3.90
2023-04-04T20:15:48.840Z,3.80
2023-04-04T20:18:24.337Z,4.28
2023-04-04T20:21:11.326Z,4.38
2023-04-04T20:23:46.816Z,3.70
2023-04-04T20:26:34.157Z,3.83
2023-04-04T20:29:01.730Z,4.27
2023-04-04T20:31:28.808Z,3.90
2023-04-04T20:33:55.661Z,4.38
2023-04-04T20:36:23.241Z,3.67
2023-04-04T20:38:49.781Z,4.13
2023-04-04T20:41:24.610Z,4.70
2023-04-04T20:43:53.689Z,3.92
2023-04-04T20:46:27.875Z,4.35
2023-04-04T20:48:57.914Z,4.05
2023-04-04T20:51:32.239Z,4.15
2023-04-04T20:54:01.902Z,4.30
2023-04-04T20:56:41.201Z,3.88
2023-04-04T20:59:32.761Z,4.20
2023-04-04T21:02:16.620Z,3.63
2023-04-04T21:04:45.780Z,4.43
2023-04-04T21:07:37.923Z,3.70
2023-04-04T21:10:44.903Z,3.97
2023-04-04T21:13:11.398Z,4.47
2023-04-04T21:15:39.324Z,4.00
2023-04-04T21:18:10.691Z,4.45
2023-04-04T21:20:46.264Z,3.67
2023-04-04T21:23:25.052Z,4.25
2023-04-04T21:26:04.967Z,5.05
2023-04-04T21:28:33.254Z,4.95
2023-04-04T21:31:01.244Z,4.65
2023-04-04T21:33:27.928Z,5.10
2023-04-04T21:35:56.359Z,4.50
2023-04-04T21:38:30.769Z,4.80
2023-04-04T21:41:17.501Z,4.40
2023-04-04T21:43:44.060Z,4.20
2023-04-04T21:46:10.930Z,3.70
2023-04-04T21:48:37.504Z,3.95
2023-04-04T21:51:04.223Z,4.78
2023-04-04T21:53:31.218Z,4.22
2023-04-04T21:55:57.643Z,4.40
2023-04-04T21:58:24.106Z,5.03
2023-04-04T22:00:50.651Z,4.35
2023-04-04T22:03:17.238Z,4.35
2023-04-04T22:05:44.726Z,4.22
2023-04-04T22:08:11.778Z,4.07
2023-04-04T22:10:45.449Z,4.60
2023-04-04T22:13:17.322Z,4.40
2023-04-04T22:15:46.915Z,4.15
2023-04-04T22:18:17.093Z,5.30
2023-04-04T22:20:45.507Z,4.38
2023-04-04T22:23:15.335Z,4.43
2023-04-04T22:25:42.398Z,4.15
2023-04-04T22:28:09.460Z,5.13
2023-04-04T22:30:39.037Z,5.15
2023-04-04T22:33:06.172Z,4.35
2023-04-04T22:35:33.068Z,5.20
2023-04-04T22:38:00.986Z,5.40
2023-04-04T22:40:28.875Z,5.25
2023-04-04T22:42:56.143Z,5.43
2023-04-04T22:45:24.014Z,5.18
2023-04-04T22:47:50.691Z,5.53
2023-04-04T22:50:22.802Z,5.65
2023-04-04T22:52:49.514Z,5.40
2023-04-04T22:55:18.216Z,5.28
2023-04-04T22:57:44.690Z,5.00
2023-04-04T23:00:12.616Z,5.30
2023-04-04T23:02:40.265Z,5.22
2023-04-04T23:05:08.306Z,4.75
2023-04-04T23:07:36.289Z,4.80
2023-04-04T23:10:05.284Z,4.82
2023-04-04T23:12:32.481Z,4.60
2023-04-04T23:15:01.422Z,4.30
2023-04-04T23:17:28.246Z,5.05
2023-04-04T23:19:55.182Z,4.50
2023-04-04T23:22:21.862Z,4.70
2023-04-04T23:24:48.593Z,4.43
2023-04-04T23:27:15.676Z,4.53
2023-04-04T23:29:42.875Z,3.97
2023-04-04T23:32:10.235Z,4.82
2023-04-04T23:34:37.160Z,4.57
2023-04-04T23:37:04.114Z,4.30
2023-04-04T23:39:31.667Z,4.60
2023-04-04T23:42:01.134Z,4.15
2023-04-04T23:44:27.719Z,4.63
2023-04-04T23:46:54.391Z,4.60
2023-04-04T23:49:21.166Z,4.13
2023-04-04T23:51:49.799Z,4.63
2023-04-04T23:54:16.366Z,4.28
2023-04-04T23:56:42.938Z,4.05
2023-04-04T23:59:09.883Z,4.40
